sensor_id;sensor_type;location;lat;lon;timestamp;temperature;humidity
7562;DHT22;3822;48.784;9.174;2022-08-02T00:01:46;23.10;89.90
7562;DHT22;3822;48.784;9.174;2022-08-02T00:04:12;23.10;90.00
7562;DHT22;3822;48.784;9.174;2022-08-02T00:06:39;23.10;90.00
7562;DHT22;3822;48.784;9.174;2022-08-02T00:09:05;23.10;90.20
7562;DHT22;3822;48.784;9.174;2022-08-02T00:11:32;23.10;90.30
7562;DHT22;3822;48.784;9.174;2022-08-02T00:13:58;23.00;90.40
7562;DHT22;3822;48.784;9.174;2022-08-02T00:16:25;23.00;90.50
7562;DHT22;3822;48.784;9.174;2022-08-02T00:18:52;23.00;90.70
7562;DHT22;3822;48.784;9.174;2022-08-02T00:21:19;23.00;91.00
7562;DHT22;3822;48.784;9.174;2022-08-02T00:23:45;22.90;91.10
7562;DHT22;3822;48.784;9.174;2022-08-02T00:26:12;22.90;91.30
7562;DHT22;3822;48.784;9.174;2022-08-02T00:28:38;22.90;91.40
7562;DHT22;3822;48.784;9.174;2022-08-02T00:31:05;22.90;91.60
7562;DHT22;3822;48.784;9.174;2022-08-02T00:33:31;22.80;91.70
7562;DHT22;3822;48.784;9.174;2022-08-02T00:35:58;22.80;91.80
7562;DHT22;3822;48.784;9.174;2022-08-02T00:38:24;22.70;91.90
7562;DHT22;3822;48.784;9.174;2022-08-02T00:40:51;22.70;92.00
7562;DHT22;3822;48.784;9.174;2022-08-02T00:43:18;22.70;92.10
7562;DHT22;3822;48.784;9.174;2022-08-02T00:45:44;22.70;92.20
7562;DHT22;3822;48.784;9.174;2022-08-02T00:48:12;22.80;92.30
7562;DHT22;3822;48.784;9.174;2022-08-02T00:50:39;22.80;92.40
7562;DHT22;3822;48.784;9.174;2022-08-02T00:53:07;22.80;92.40
7562;DHT22;3822;48.784;9.174;2022-08-02T00:55:37;22.90;92.50
7562;DHT22;3822;48.784;9.174;2022-08-02T00:58:05;22.80;92.40
7562;DHT22;3822;48.784;9.174;2022-08-02T01:00:31;22.80;92.40
7562;DHT22;3822;48.784;9.174;2022-08-02T01:02:58;22.90;92.40
7562;DHT22;3822;48.784;9.174;2022-08-02T01:05:25;22.90;92.40
7562;DHT22;3822;48.784;9.174;2022-08-02T01:07:51;22.90;92.30
7562;DHT22;3822;48.784;9.174;2022-08-02T01:10:18;22.80;92.20
7562;DHT22;3822;48.784;9.174;2022-08-02T01:12:44;22.80;92.20
7562;DHT22;3822;48.784;9.174;2022-08-02T01:15:13;22.80;92.30
7562;DHT22;3822;48.784;9.174;2022-08-02T01:26:54;22.80;92.30
7562;DHT22;3822;48.784;9.174;2022-08-02T01:29:31;22.70;92.20
7562;DHT22;3822;48.784;9.174;2022-08-02T01:32:13;22.80;92.20
7562;DHT22;3822;48.784;9.174;2022-08-02T01:37:31;22.70;92.10
7562;DHT22;3822;48.784;9.174;2022-08-02T01:40:07;22.70;92.00
7562;DHT22;3822;48.784;9.174;2022-08-02T01:42:42;22.70;92.00
7562;DHT22;3822;48.784;9.174;2022-08-02T01:45:12;22.70;91.90
7562;DHT22;3822;48.784;9.174;2022-08-02T01:47:41;22.70;91.90
7562;DHT22;3822;48.784;9.174;2022-08-02T01:50:13;22.70;92.00
7562;DHT22;3822;48.784;9.174;2022-08-02T01:52:48;22.60;91.90
7562;DHT22;3822;48.784;9.174;2022-08-02T01:55:25;22.60;91.90
7562;DHT22;3822;48.784;9.174;2022-08-02T01:57:57;22.60;91.90
7562;DHT22;3822;48.784;9.174;2022-08-02T02:00:28;22.50;91.90
7562;DHT22;3822;48.784;9.174;2022-08-02T02:02:58;22.50;91.90
7562;DHT22;3822;48.784;9.174;2022-08-02T02:05:27;22.40;91.90
7562;DHT22;3822;48.784;9.174;2022-08-02T02:07:57;22.40;91.90
7562;DHT22;3822;48.784;9.174;2022-08-02T02:10:30;22.40;92.00
7562;DHT22;3822;48.784;9.174;2022-08-02T02:13:04;22.40;92.00
7562;DHT22;3822;48.784;9.174;2022-08-02T02:15:34;22.40;92.00
7562;DHT22;3822;48.784;9.174;2022-08-02T02:18:07;22.40;92.00
7562;DHT22;3822;48.784;9.174;2022-08-02T02:20:34;22.30;92.00
7562;DHT22;3822;48.784;9.174;2022-08-02T02:23:01;22.40;92.10
7562;DHT22;3822;48.784;9.174;2022-08-02T02:25:27;22.30;92.00
7562;DHT22;3822;48.784;9.174;2022-08-02T02:28:02;22.30;92.10
7562;DHT22;3822;48.784;9.174;2022-08-02T02:30:31;22.30;92.20
7562;DHT22;3822;48.784;9.174;2022-08-02T02:33:01;22.30;92.20
7562;DHT22;3822;48.784;9.174;2022-08-02T02:35:31;22.30;92.20
7562;DHT22;3822;48.784;9.174;2022-08-02T02:38:02;22.20;92.20
7562;DHT22;3822;48.784;9.174;2022-08-02T02:40:30;22.30;92.20
7562;DHT22;3822;48.784;9.174;2022-08-02T02:42:59;22.20;92.20
7562;DHT22;3822;48.784;9.174;2022-08-02T02:45:27;22.30;92.20
7562;DHT22;3822;48.784;9.174;2022-08-02T02:47:56;22.30;92.20
7562;DHT22;3822;48.784;9.174;2022-08-02T02:50:23;22.30;92.20
7562;DHT22;3822;48.784;9.174;2022-08-02T02:52:51;22.30;92.20
7562;DHT22;3822;48.784;9.174;2022-08-02T02:55:18;22.40;92.20
7562;DHT22;3822;48.784;9.174;2022-08-02T02:57:45;22.40;92.20
7562;DHT22;3822;48.784;9.174;2022-08-02T03:00:13;22.40;92.20
7562;DHT22;3822;48.784;9.174;2022-08-02T03:02:42;22.40;92.10
7562;DHT22;3822;48.784;9.174;2022-08-02T03:05:11;22.40;92.00
7562;DHT22;3822;48.784;9.174;2022-08-02T03:07:38;22.40;91.90
7562;DHT22;3822;48.784;9.174;2022-08-02T03:10:06;22.50;92.00
7562;DHT22;3822;48.784;9.174;2022-08-02T03:12:34;22.50;91.90
7562;DHT22;3822;48.784;9.174;2022-08-02T03:15:05;22.50;91.90
7562;DHT22;3822;48.784;9.174;2022-08-02T03:17:40;22.50;91.80
7562;DHT22;3822;48.784;9.174;2022-08-02T03:20:18;22.60;91.80
7562;DHT22;3822;48.784;9.174;2022-08-02T03:22:46;22.60;91.70
7562;DHT22;3822;48.784;9.174;2022-08-02T03:25:14;22.50;91.70
7562;DHT22;3822;48.784;9.174;2022-08-02T03:27:41;22.50;91.60
7562;DHT22;3822;48.784;9.174;2022-08-02T03:30:10;22.50;91.50
7562;DHT22;3822;48.784;9.174;2022-08-02T03:32:39;22.50;91.50
7562;DHT22;3822;48.784;9.174;2022-08-02T03:35:09;22.50;91.60
7562;DHT22;3822;48.784;9.174;2022-08-02T03:37:38;22.50;91.60
7562;DHT22;3822;48.784;9.174;2022-08-02T03:40:07;22.50;91.60
7562;DHT22;3822;48.784;9.174;2022-08-02T03:42:35;22.50;91.60
7562;DHT22;3822;48.784;9.174;2022-08-02T03:45:03;22.50;91.60
7562;DHT22;3822;48.784;9.174;2022-08-02T03:47:31;22.50;91.60
7562;DHT22;3822;48.784;9.174;2022-08-02T03:49:59;22.50;91.60
7562;DHT22;3822;48.784;9.174;2022-08-02T03:52:27;22.50;91.60
7562;DHT22;3822;48.784;9.174;2022-08-02T03:54:53;22.50;91.70
7562;DHT22;3822;48.784;9.174;2022-08-02T03:57:20;22.50;91.60
7562;DHT22;3822;48.784;9.174;2022-08-02T03:59:47;22.50;91.60
7562;DHT22;3822;48.784;9.174;2022-08-02T04:02:13;22.50;91.60
7562;DHT22;3822;48.784;9.174;2022-08-02T04:04:40;22.50;91.60
7562;DHT22;3822;48.784;9.174;2022-08-02T04:07:06;22.50;91.60
7562;DHT22;3822;48.784;9.174;2022-08-02T04:09:33;22.50;91.60
7562;DHT22;3822;48.784;9.174;2022-08-02T04:11:59;22.50;91.50
7562;DHT22;3822;48.784;9.174;2022-08-02T04:14:26;22.50;91.50
7562;DHT22;3822;48.784;9.174;2022-08-02T04:17:01;22.50;91.50
7562;DHT22;3822;48.784;9.174;2022-08-02T04:19:33;22.50;91.50
7562;DHT22;3822;48.784;9.174;2022-08-02T04:22:06;22.50;91.50
7562;DHT22;3822;48.784;9.174;2022-08-02T04:24:53;22.50;91.50
7562;DHT22;3822;48.784;9.174;2022-08-02T04:27:23;22.50;91.50
7562;DHT22;3822;48.784;9.174;2022-08-02T04:29:50;22.50;91.50
7562;DHT22;3822;48.784;9.174;2022-08-02T04:32:18;22.50;91.50
7562;DHT22;3822;48.784;9.174;2022-08-02T04:34:45;22.60;91.60
7562;DHT22;3822;48.784;9.174;2022-08-02T04:37:12;22.70;91.60
7562;DHT22;3822;48.784;9.174;2022-08-02T04:39:42;22.70;91.40
7562;DHT22;3822;48.784;9.174;2022-08-02T04:42:09;22.80;91.30
7562;DHT22;3822;48.784;9.174;2022-08-02T04:44:35;22.80;91.20
7562;DHT22;3822;48.784;9.174;2022-08-02T04:47:02;22.90;91.10
7562;DHT22;3822;48.784;9.174;2022-08-02T04:49:30;22.90;91.00
7562;DHT22;3822;48.784;9.174;2022-08-02T04:51:57;22.90;90.90
7562;DHT22;3822;48.784;9.174;2022-08-02T04:54:25;22.90;90.90
7562;DHT22;3822;48.784;9.174;2022-08-02T04:56:52;22.90;90.80
7562;DHT22;3822;48.784;9.174;2022-08-02T04:59:18;22.90;90.70
7562;DHT22;3822;48.784;9.174;2022-08-02T05:01:45;22.90;90.60
7562;DHT22;3822;48.784;9.174;2022-08-02T05:04:11;22.90;90.50
7562;DHT22;3822;48.784;9.174;2022-08-02T05:06:38;22.80;90.50
7562;DHT22;3822;48.784;9.174;2022-08-02T05:09:04;22.80;90.50
7562;DHT22;3822;48.784;9.174;2022-08-02T05:11:31;22.80;90.50
7562;DHT22;3822;48.784;9.174;2022-08-02T05:13:57;22.80;90.50
7562;DHT22;3822;48.784;9.174;2022-08-02T05:16:24;22.80;90.40
7562;DHT22;3822;48.784;9.174;2022-08-02T05:18:53;22.90;90.40
7562;DHT22;3822;48.784;9.174;2022-08-02T05:21:20;22.90;90.40
7562;DHT22;3822;48.784;9.174;2022-08-02T05:23:46;22.90;90.30
7562;DHT22;3822;48.784;9.174;2022-08-02T05:26:12;22.90;90.20
7562;DHT22;3822;48.784;9.174;2022-08-02T05:28:39;23.00;90.20
7562;DHT22;3822;48.784;9.174;2022-08-02T05:31:05;23.00;90.20
7562;DHT22;3822;48.784;9.174;2022-08-02T05:33:32;23.00;90.10
7562;DHT22;3822;48.784;9.174;2022-08-02T05:35:58;23.10;90.20
7562;DHT22;3822;48.784;9.174;2022-08-02T05:38:25;23.10;90.00
7562;DHT22;3822;48.784;9.174;2022-08-02T05:40:53;23.20;89.60
7562;DHT22;3822;48.784;9.174;2022-08-02T05:43:20;23.20;89.30
7562;DHT22;3822;48.784;9.174;2022-08-02T05:45:46;23.20;89.00
7562;DHT22;3822;48.784;9.174;2022-08-02T05:48:13;23.20;88.90
7562;DHT22;3822;48.784;9.174;2022-08-02T05:50:44;23.20;88.40
7562;DHT22;3822;48.784;9.174;2022-08-02T05:53:36;23.10;88.40
7562;DHT22;3822;48.784;9.174;2022-08-02T05:56:54;23.10;88.70
7562;DHT22;3822;48.784;9.174;2022-08-02T05:59:32;23.20;89.10
7562;DHT22;3822;48.784;9.174;2022-08-02T06:02:28;23.20;88.90
7562;DHT22;3822;48.784;9.174;2022-08-02T06:05:10;23.20;88.30
7562;DHT22;3822;48.784;9.174;2022-08-02T06:07:43;23.20;87.80
7562;DHT22;3822;48.784;9.174;2022-08-02T06:10:12;23.20;87.60
7562;DHT22;3822;48.784;9.174;2022-08-02T06:15:26;23.30;87.20
7562;DHT22;3822;48.784;9.174;2022-08-02T06:17:53;23.30;87.10
7562;DHT22;3822;48.784;9.174;2022-08-02T06:20:22;23.30;86.90
7562;DHT22;3822;48.784;9.174;2022-08-02T06:22:50;23.40;86.80
7562;DHT22;3822;48.784;9.174;2022-08-02T06:25:18;23.40;86.80
7562;DHT22;3822;48.784;9.174;2022-08-02T06:27:45;23.40;86.70
7562;DHT22;3822;48.784;9.174;2022-08-02T06:30:14;23.40;86.60
7562;DHT22;3822;48.784;9.174;2022-08-02T06:32:43;23.50;86.70
7562;DHT22;3822;48.784;9.174;2022-08-02T06:35:10;23.50;86.60
7562;DHT22;3822;48.784;9.174;2022-08-02T06:38:00;23.60;86.40
7562;DHT22;3822;48.784;9.174;2022-08-02T06:40:39;23.60;86.10
7562;DHT22;3822;48.784;9.174;2022-08-02T06:45:38;23.70;85.80
7562;DHT22;3822;48.784;9.174;2022-08-02T06:48:06;23.70;85.70
7562;DHT22;3822;48.784;9.174;2022-08-02T06:50:33;23.70;85.60
7562;DHT22;3822;48.784;9.174;2022-08-02T06:53:00;23.80;85.50
7562;DHT22;3822;48.784;9.174;2022-08-02T06:55:27;23.90;85.40
7562;DHT22;3822;48.784;9.174;2022-08-02T06:57:54;24.00;85.20
7562;DHT22;3822;48.784;9.174;2022-08-02T07:00:21;24.00;84.80
7562;DHT22;3822;48.784;9.174;2022-08-02T07:02:48;24.00;84.40
7562;DHT22;3822;48.784;9.174;2022-08-02T07:05:15;24.10;84.30
7562;DHT22;3822;48.784;9.174;2022-08-02T07:07:42;24.10;84.00
7562;DHT22;3822;48.784;9.174;2022-08-02T07:10:08;24.10;83.90
7562;DHT22;3822;48.784;9.174;2022-08-02T07:12:35;24.20;83.60
7562;DHT22;3822;48.784;9.174;2022-08-02T07:15:04;24.20;83.60
7562;DHT22;3822;48.784;9.174;2022-08-02T07:17:33;24.30;83.50
7562;DHT22;3822;48.784;9.174;2022-08-02T07:20:00;24.30;83.10
7562;DHT22;3822;48.784;9.174;2022-08-02T07:22:27;24.40;82.80
7562;DHT22;3822;48.784;9.174;2022-08-02T07:24:55;24.50;82.80
7562;DHT22;3822;48.784;9.174;2022-08-02T07:27:23;24.50;82.50
7562;DHT22;3822;48.784;9.174;2022-08-02T07:29:50;24.50;82.20
7562;DHT22;3822;48.784;9.174;2022-08-02T07:32:19;24.50;82.00
7562;DHT22;3822;48.784;9.174;2022-08-02T07:34:47;24.70;82.00
7562;DHT22;3822;48.784;9.174;2022-08-02T07:37:14;24.70;81.50
7562;DHT22;3822;48.784;9.174;2022-08-02T07:39:41;24.70;81.50
7562;DHT22;3822;48.784;9.174;2022-08-02T07:42:07;24.80;81.80
7562;DHT22;3822;48.784;9.174;2022-08-02T07:44:34;24.80;81.60
7562;DHT22;3822;48.784;9.174;2022-08-02T07:47:01;24.90;81.30
7562;DHT22;3822;48.784;9.174;2022-08-02T07:49:27;24.90;81.10
7562;DHT22;3822;48.784;9.174;2022-08-02T07:51:54;25.00;81.10
7562;DHT22;3822;48.784;9.174;2022-08-02T07:54:21;25.10;80.90
7562;DHT22;3822;48.784;9.174;2022-08-02T07:56:48;25.20;80.80
7562;DHT22;3822;48.784;9.174;2022-08-02T07:59:14;25.30;80.80
7562;DHT22;3822;48.784;9.174;2022-08-02T08:01:41;25.30;80.50
7562;DHT22;3822;48.784;9.174;2022-08-02T08:04:07;25.30;80.30
7562;DHT22;3822;48.784;9.174;2022-08-02T08:06:34;25.40;80.30
7562;DHT22;3822;48.784;9.174;2022-08-02T08:09:01;25.50;80.20
7562;DHT22;3822;48.784;9.174;2022-08-02T08:11:27;25.50;79.80
7562;DHT22;3822;48.784;9.174;2022-08-02T08:13:54;25.70;79.60
7562;DHT22;3822;48.784;9.174;2022-08-02T08:16:20;25.70;79.30
7562;DHT22;3822;48.784;9.174;2022-08-02T08:18:47;25.80;79.10
7562;DHT22;3822;48.784;9.174;2022-08-02T08:21:14;25.80;78.80
7562;DHT22;3822;48.784;9.174;2022-08-02T08:23:40;25.90;78.60
7562;DHT22;3822;48.784;9.174;2022-08-02T08:26:07;26.00;78.10
7562;DHT22;3822;48.784;9.174;2022-08-02T08:28:33;26.00;77.60
7562;DHT22;3822;48.784;9.174;2022-08-02T08:31:00;26.00;77.00
7562;DHT22;3822;48.784;9.174;2022-08-02T08:33:27;26.00;76.50
7562;DHT22;3822;48.784;9.174;2022-08-02T08:35:54;26.00;76.40
7562;DHT22;3822;48.784;9.174;2022-08-02T08:38:21;26.00;76.50
7562;DHT22;3822;48.784;9.174;2022-08-02T08:40:48;26.00;75.60
7562;DHT22;3822;48.784;9.174;2022-08-02T08:43:15;26.00;75.90
7562;DHT22;3822;48.784;9.174;2022-08-02T08:45:43;26.10;76.00
7562;DHT22;3822;48.784;9.174;2022-08-02T08:48:12;26.10;75.90
7562;DHT22;3822;48.784;9.174;2022-08-02T08:50:53;26.20;75.60
7562;DHT22;3822;48.784;9.174;2022-08-02T08:53:23;26.30;75.20
7562;DHT22;3822;48.784;9.174;2022-08-02T08:55:53;26.30;75.10
7562;DHT22;3822;48.784;9.174;2022-08-02T08:58:21;26.30;74.50
7562;DHT22;3822;48.784;9.174;2022-08-02T09:00:48;26.40;74.20
7562;DHT22;3822;48.784;9.174;2022-08-02T09:03:15;26.50;73.90
7562;DHT22;3822;48.784;9.174;2022-08-02T09:05:41;26.50;73.60
7562;DHT22;3822;48.784;9.174;2022-08-02T09:08:12;26.60;73.20
7562;DHT22;3822;48.784;9.174;2022-08-02T09:10:41;26.60;73.20
7562;DHT22;3822;48.784;9.174;2022-08-02T09:13:24;26.60;73.50
7562;DHT22;3822;48.784;9.174;2022-08-02T09:16:01;26.70;72.50
7562;DHT22;3822;48.784;9.174;2022-08-02T09:18:36;26.70;72.20
7562;DHT22;3822;48.784;9.174;2022-08-02T09:21:06;26.70;71.60
7562;DHT22;3822;48.784;9.174;2022-08-02T09:23:39;26.80;71.50
7562;DHT22;3822;48.784;9.174;2022-08-02T09:26:23;26.80;71.10
7562;DHT22;3822;48.784;9.174;2022-08-02T09:28:52;26.80;71.10
7562;DHT22;3822;48.784;9.174;2022-08-02T09:31:26;26.90;71.20
7562;DHT22;3822;48.784;9.174;2022-08-02T09:33:57;26.90;71.20
7562;DHT22;3822;48.784;9.174;2022-08-02T09:36:26;27.00;70.80
7562;DHT22;3822;48.784;9.174;2022-08-02T09:39:01;27.00;70.40
7562;DHT22;3822;48.784;9.174;2022-08-02T09:41:31;27.00;70.30
7562;DHT22;3822;48.784;9.174;2022-08-02T09:44:01;26.90;70.40
7562;DHT22;3822;48.784;9.174;2022-08-02T09:46:30;27.00;70.20
7562;DHT22;3822;48.784;9.174;2022-08-02T09:49:15;27.00;70.10
7562;DHT22;3822;48.784;9.174;2022-08-02T09:54:16;27.10;69.60
7562;DHT22;3822;48.784;9.174;2022-08-02T09:56:53;27.10;69.50
7562;DHT22;3822;48.784;9.174;2022-08-02T09:59:21;27.20;69.50
7562;DHT22;3822;48.784;9.174;2022-08-02T10:01:50;27.30;69.10
7562;DHT22;3822;48.784;9.174;2022-08-02T10:04:22;27.30;68.70
7562;DHT22;3822;48.784;9.174;2022-08-02T10:06:51;27.40;68.40
7562;DHT22;3822;48.784;9.174;2022-08-02T10:09:19;27.40;67.60
7562;DHT22;3822;48.784;9.174;2022-08-02T10:11:46;27.50;67.60
7562;DHT22;3822;48.784;9.174;2022-08-02T10:14:13;27.50;67.40
7562;DHT22;3822;48.784;9.174;2022-08-02T10:16:41;27.60;67.10
7562;DHT22;3822;48.784;9.174;2022-08-02T10:19:09;27.60;66.90
7562;DHT22;3822;48.784;9.174;2022-08-02T10:24:37;27.70;66.30
7562;DHT22;3822;48.784;9.174;2022-08-02T10:27:10;27.70;66.30
7562;DHT22;3822;48.784;9.174;2022-08-02T10:29:42;28.20;66.50
7562;DHT22;3822;48.784;9.174;2022-08-02T10:32:10;27.90;66.10
7562;DHT22;3822;48.784;9.174;2022-08-02T10:34:46;27.90;65.90
7562;DHT22;3822;48.784;9.174;2022-08-02T10:37:17;28.00;65.70
7562;DHT22;3822;48.784;9.174;2022-08-02T10:39:45;28.00;65.50
7562;DHT22;3822;48.784;9.174;2022-08-02T10:42:12;28.10;65.20
7562;DHT22;3822;48.784;9.174;2022-08-02T10:45:09;28.10;64.60
7562;DHT22;3822;48.784;9.174;2022-08-02T10:47:37;28.00;64.10
7562;DHT22;3822;48.784;9.174;2022-08-02T10:50:03;28.10;64.30
7562;DHT22;3822;48.784;9.174;2022-08-02T10:52:31;28.10;64.30
7562;DHT22;3822;48.784;9.174;2022-08-02T10:55:09;28.10;63.70
7562;DHT22;3822;48.784;9.174;2022-08-02T10:57:36;28.20;64.10
7562;DHT22;3822;48.784;9.174;2022-08-02T11:02:49;28.20;63.90
7562;DHT22;3822;48.784;9.174;2022-08-02T11:05:37;28.20;63.20
7562;DHT22;3822;48.784;9.174;2022-08-02T11:08:20;28.20;62.80
7562;DHT22;3822;48.784;9.174;2022-08-02T11:10:47;28.20;63.10
7562;DHT22;3822;48.784;9.174;2022-08-02T11:13:16;28.20;63.20
7562;DHT22;3822;48.784;9.174;2022-08-02T11:15:56;28.30;62.90
7562;DHT22;3822;48.784;9.174;2022-08-02T11:21:20;28.30;61.90
7562;DHT22;3822;48.784;9.174;2022-08-02T11:23:48;28.30;61.50
7562;DHT22;3822;48.784;9.174;2022-08-02T11:28:59;28.40;61.80
7562;DHT22;3822;48.784;9.174;2022-08-02T11:31:27;28.40;60.80
7562;DHT22;3822;48.784;9.174;2022-08-02T11:33:55;28.50;60.70
7562;DHT22;3822;48.784;9.174;2022-08-02T11:36:21;28.60;60.50
7562;DHT22;3822;48.784;9.174;2022-08-02T11:38:47;28.60;59.80
7562;DHT22;3822;48.784;9.174;2022-08-02T11:41:23;28.70;59.60
7562;DHT22;3822;48.784;9.174;2022-08-02T11:43:55;28.80;59.60
7562;DHT22;3822;48.784;9.174;2022-08-02T11:46:22;28.90;59.40
7562;DHT22;3822;48.784;9.174;2022-08-02T11:48:48;29.00;59.20
7562;DHT22;3822;48.784;9.174;2022-08-02T11:51:17;29.10;59.00
7562;DHT22;3822;48.784;9.174;2022-08-02T11:53:53;29.20;58.20
7562;DHT22;3822;48.784;9.174;2022-08-02T11:56:31;29.20;57.80
7562;DHT22;3822;48.784;9.174;2022-08-02T11:59:08;29.40;57.70
7562;DHT22;3822;48.784;9.174;2022-08-02T12:01:38;29.50;57.40
7562;DHT22;3822;48.784;9.174;2022-08-02T12:04:05;29.60;57.00
7562;DHT22;3822;48.784;9.174;2022-08-02T12:06:33;29.70;56.90
7562;DHT22;3822;48.784;9.174;2022-08-02T12:09:04;29.80;56.10
7562;DHT22;3822;48.784;9.174;2022-08-02T12:11:32;29.90;56.40
7562;DHT22;3822;48.784;9.174;2022-08-02T12:13:59;30.00;55.90
7562;DHT22;3822;48.784;9.174;2022-08-02T12:16:33;30.10;55.70
7562;DHT22;3822;48.784;9.174;2022-08-02T12:19:20;30.20;54.80
7562;DHT22;3822;48.784;9.174;2022-08-02T12:22:06;30.30;55.40
7562;DHT22;3822;48.784;9.174;2022-08-02T12:24:42;30.40;53.40
7562;DHT22;3822;48.784;9.174;2022-08-02T12:27:36;30.40;53.40
7562;DHT22;3822;48.784;9.174;2022-08-02T12:30:14;30.50;52.50
7562;DHT22;3822;48.784;9.174;2022-08-02T12:32:43;30.50;53.20
7562;DHT22;3822;48.784;9.174;2022-08-02T12:35:17;30.40;52.70
7562;DHT22;3822;48.784;9.174;2022-08-02T12:37:49;30.50;53.10
7562;DHT22;3822;48.784;9.174;2022-08-02T12:40:29;30.50;52.90
7562;DHT22;3822;48.784;9.174;2022-08-02T12:42:59;30.50;52.10
7562;DHT22;3822;48.784;9.174;2022-08-02T12:45:28;30.50;52.10
7562;DHT22;3822;48.784;9.174;2022-08-02T12:47:57;30.60;52.50
7562;DHT22;3822;48.784;9.174;2022-08-02T12:53:13;30.70;53.30
7562;DHT22;3822;48.784;9.174;2022-08-02T12:55:53;30.80;53.00
7562;DHT22;3822;48.784;9.174;2022-08-02T12:58:21;31.00;52.80
7562;DHT22;3822;48.784;9.174;2022-08-02T13:00:56;31.10;52.50
7562;DHT22;3822;48.784;9.174;2022-08-02T13:03:24;31.20;52.00
7562;DHT22;3822;48.784;9.174;2022-08-02T13:05:51;31.30;50.90
7562;DHT22;3822;48.784;9.174;2022-08-02T13:08:17;31.40;50.30
7562;DHT22;3822;48.784;9.174;2022-08-02T13:10:44;31.50;49.90
7562;DHT22;3822;48.784;9.174;2022-08-02T13:13:10;31.50;49.60
7562;DHT22;3822;48.784;9.174;2022-08-02T13:15:37;31.60;49.70
7562;DHT22;3822;48.784;9.174;2022-08-02T13:18:04;31.70;50.00
7562;DHT22;3822;48.784;9.174;2022-08-02T13:20:30;31.80;49.10
7562;DHT22;3822;48.784;9.174;2022-08-02T13:22:57;31.80;48.20
7562;DHT22;3822;48.784;9.174;2022-08-02T13:25:23;31.80;47.60
7562;DHT22;3822;48.784;9.174;2022-08-02T13:27:50;31.70;46.70
7562;DHT22;3822;48.784;9.174;2022-08-02T13:30:17;31.70;46.60
7562;DHT22;3822;48.784;9.174;2022-08-02T13:32:45;31.70;47.80
7562;DHT22;3822;48.784;9.174;2022-08-02T13:35:11;31.70;47.20
7562;DHT22;3822;48.784;9.174;2022-08-02T13:37:40;31.80;47.00
7562;DHT22;3822;48.784;9.174;2022-08-02T13:40:07;31.80;46.20
7562;DHT22;3822;48.784;9.174;2022-08-02T13:42:34;31.80;46.30
7562;DHT22;3822;48.784;9.174;2022-08-02T13:45:01;31.80;46.40
7562;DHT22;3822;48.784;9.174;2022-08-02T13:47:27;31.90;45.90
7562;DHT22;3822;48.784;9.174;2022-08-02T13:49:53;31.90;45.80
7562;DHT22;3822;48.784;9.174;2022-08-02T13:52:20;32.00;45.20
7562;DHT22;3822;48.784;9.174;2022-08-02T13:54:46;31.90;45.30
7562;DHT22;3822;48.784;9.174;2022-08-02T13:57:13;32.00;45.40
7562;DHT22;3822;48.784;9.174;2022-08-02T13:59:40;32.10;45.20
7562;DHT22;3822;48.784;9.174;2022-08-02T14:02:06;32.20;44.90
7562;DHT22;3822;48.784;9.174;2022-08-02T14:04:33;32.40;44.70
7562;DHT22;3822;48.784;9.174;2022-08-02T14:06:59;32.50;44.40
7562;DHT22;3822;48.784;9.174;2022-08-02T14:09:26;32.60;43.90
7562;DHT22;3822;48.784;9.174;2022-08-02T14:11:52;32.70;43.70
7562;DHT22;3822;48.784;9.174;2022-08-02T14:14:19;32.80;43.30
7562;DHT22;3822;48.784;9.174;2022-08-02T14:16:45;32.90;43.10
7562;DHT22;3822;48.784;9.174;2022-08-02T14:19:12;33.00;42.90
7562;DHT22;3822;48.784;9.174;2022-08-02T14:21:39;33.10;42.60
7562;DHT22;3822;48.784;9.174;2022-08-02T14:24:06;33.10;42.40
7562;DHT22;3822;48.784;9.174;2022-08-02T14:26:33;33.00;42.10
7562;DHT22;3822;48.784;9.174;2022-08-02T14:28:59;32.90;42.30
7562;DHT22;3822;48.784;9.174;2022-08-02T14:31:25;32.90;42.60
7562;DHT22;3822;48.784;9.174;2022-08-02T14:33:52;32.90;42.80
7562;DHT22;3822;48.784;9.174;2022-08-02T14:36:18;32.90;42.60
7562;DHT22;3822;48.784;9.174;2022-08-02T14:38:45;33.00;42.50
7562;DHT22;3822;48.784;9.174;2022-08-02T14:41:11;33.00;42.50
7562;DHT22;3822;48.784;9.174;2022-08-02T14:43:38;33.10;42.50
7562;DHT22;3822;48.784;9.174;2022-08-02T14:46:23;33.10;42.50
7562;DHT22;3822;48.784;9.174;2022-08-02T14:48:49;33.30;42.50
7562;DHT22;3822;48.784;9.174;2022-08-02T14:51:16;33.40;42.00
7562;DHT22;3822;48.784;9.174;2022-08-02T14:53:42;33.60;41.80
7562;DHT22;3822;48.784;9.174;2022-08-02T14:56:09;33.60;40.70
7562;DHT22;3822;48.784;9.174;2022-08-02T14:58:35;33.60;40.50
7562;DHT22;3822;48.784;9.174;2022-08-02T15:01:02;33.70;40.40
7562;DHT22;3822;48.784;9.174;2022-08-02T15:03:29;33.70;40.20
7562;DHT22;3822;48.784;9.174;2022-08-02T15:05:55;33.70;39.40
7562;DHT22;3822;48.784;9.174;2022-08-02T15:08:22;33.70;39.60
7562;DHT22;3822;48.784;9.174;2022-08-02T15:10:48;33.70;39.90
7562;DHT22;3822;48.784;9.174;2022-08-02T15:13:15;33.70;40.20
7562;DHT22;3822;48.784;9.174;2022-08-02T15:15:41;33.80;40.60
7562;DHT22;3822;48.784;9.174;2022-08-02T15:18:08;33.90;40.40
7562;DHT22;3822;48.784;9.174;2022-08-02T15:20:34;34.00;39.80
7562;DHT22;3822;48.784;9.174;2022-08-02T15:23:01;34.10;40.20
7562;DHT22;3822;48.784;9.174;2022-08-02T15:25:28;34.30;38.50
7562;DHT22;3822;48.784;9.174;2022-08-02T15:27:54;34.20;38.40
7562;DHT22;3822;48.784;9.174;2022-08-02T15:30:21;34.30;38.50
7562;DHT22;3822;48.784;9.174;2022-08-02T15:32:48;34.30;38.70
7562;DHT22;3822;48.784;9.174;2022-08-02T15:35:15;34.40;38.70
7562;DHT22;3822;48.784;9.174;2022-08-02T15:37:41;34.60;38.80
7562;DHT22;3822;48.784;9.174;2022-08-02T15:40:12;34.70;38.30
7562;DHT22;3822;48.784;9.174;2022-08-02T15:42:39;34.70;37.50
7562;DHT22;3822;48.784;9.174;2022-08-02T15:45:05;34.70;36.80
7562;DHT22;3822;48.784;9.174;2022-08-02T15:47:32;34.70;37.10
7562;DHT22;3822;48.784;9.174;2022-08-02T15:49:59;34.80;37.00
7562;DHT22;3822;48.784;9.174;2022-08-02T15:52:26;34.90;37.00
7562;DHT22;3822;48.784;9.174;2022-08-02T15:54:53;34.90;36.30
7562;DHT22;3822;48.784;9.174;2022-08-02T15:57:20;34.90;36.30
7562;DHT22;3822;48.784;9.174;2022-08-02T15:59:46;35.00;36.30
7562;DHT22;3822;48.784;9.174;2022-08-02T16:02:13;35.10;36.60
7562;DHT22;3822;48.784;9.174;2022-08-02T16:04:40;35.20;36.60
7562;DHT22;3822;48.784;9.174;2022-08-02T16:07:07;35.30;36.40
7562;DHT22;3822;48.784;9.174;2022-08-02T16:09:34;35.40;36.30
7562;DHT22;3822;48.784;9.174;2022-08-02T16:12:01;35.60;36.00
7562;DHT22;3822;48.784;9.174;2022-08-02T16:14:28;35.70;35.90
7562;DHT22;3822;48.784;9.174;2022-08-02T16:16:55;35.80;35.90
7562;DHT22;3822;48.784;9.174;2022-08-02T16:19:21;35.90;35.60
7562;DHT22;3822;48.784;9.174;2022-08-02T16:21:49;36.00;35.30
7562;DHT22;3822;48.784;9.174;2022-08-02T16:24:16;36.20;35.50
7562;DHT22;3822;48.784;9.174;2022-08-02T16:26:43;36.30;35.60
7562;DHT22;3822;48.784;9.174;2022-08-02T16:29:09;36.50;35.40
7562;DHT22;3822;48.784;9.174;2022-08-02T16:31:36;36.60;35.20
7562;DHT22;3822;48.784;9.174;2022-08-02T16:34:04;36.70;34.70
7562;DHT22;3822;48.784;9.174;2022-08-02T16:36:31;36.90;34.60
7562;DHT22;3822;48.784;9.174;2022-08-02T16:38:57;37.00;34.50
7562;DHT22;3822;48.784;9.174;2022-08-02T16:41:24;37.00;33.20
7562;DHT22;3822;48.784;9.174;2022-08-02T16:43:50;37.10;33.40
7562;DHT22;3822;48.784;9.174;2022-08-02T16:46:17;37.20;33.70
7562;DHT22;3822;48.784;9.174;2022-08-02T16:48:43;37.30;33.20